sensor_id;sensor_type;location;lat;lon;timestamp;pressure;altitude;pressure_sealevel;temperature;humidity
20628;BME280;10473;42.734;24.258;2023-09-19T00:00:21;92334.78;;;15.06;72.33
20628;BME280;10473;42.734;24.258;2023-09-19T00:02:54;92369.47;;;15.34;72.29
20628;BME280;10473;42.734;24.258;2023-09-19T00:05:23;92371.81;;;15.39;72.38
20628;BME280;10473;42.734;24.258;2023-09-19T00:07:52;92371.38;;;15.30;72.75
20628;BME280;10473;42.734;24.258;2023-09-19T00:10:21;92357.69;;;15.35;71.93
20628;BME280;10473;42.734;24.258;2023-09-19T00:12:52;92368.72;;;15.47;71.65
20628;BME280;10473;42.734;24.258;2023-09-19T00:15:22;92358.41;;;15.11;73.19
20628;BME280;10473;42.734;24.258;2023-09-19T00:17:51;92356.88;;;15.24;72.79
20628;BME280;10473;42.734;24.258;2023-09-19T00:20:19;92343.88;;;14.63;75.53
20628;BME280;10473;42.734;24.258;2023-09-19T00:22:49;92345.78;;;14.76;75.47
20628;BME280;10473;42.734;24.258;2023-09-19T00:25:18;92334.38;;;14.76;74.59
20628;BME280;10473;42.734;24.258;2023-09-19T00:27:46;92353.44;;;14.71;75.69
20628;BME280;10473;42.734;24.258;2023-09-19T00:30:19;92314.13;;;14.54;75.43
20628;BME280;10473;42.734;24.258;2023-09-19T00:32:48;92346.56;;;14.77;75.45
20628;BME280;10473;42.734;24.258;2023-09-19T00:35:22;92322.53;;;14.70;75.19
20628;BME280;10473;42.734;24.258;2023-09-19T00:37:51;92332.47;;;14.87;74.91
20628;BME280;10473;42.734;24.258;2023-09-19T00:40:19;92348.88;;;15.06;73.95
20628;BME280;10473;42.734;24.258;2023-09-19T00:42:49;92357.28;;;15.08;72.96
20628;BME280;10473;42.734;24.258;2023-09-19T00:45:17;92352.31;;;15.10;72.99
20628;BME280;10473;42.734;24.258;2023-09-19T00:47:49;92350.00;;;14.88;74.00
20628;BME280;10473;42.734;24.258;2023-09-19T00:50:19;92348.13;;;14.88;74.37
20628;BME280;10473;42.734;24.258;2023-09-19T00:52:50;92342.00;;;14.88;74.62
20628;BME280;10473;42.734;24.258;2023-09-19T00:55:22;92334.78;;;15.06;73.86
20628;BME280;10473;42.734;24.258;2023-09-19T00:57:51;92342.78;;;15.09;73.26
20628;BME280;10473;42.734;24.258;2023-09-19T01:00:19;92353.06;;;15.18;73.44
20628;BME280;10473;42.734;24.258;2023-09-19T01:02:48;92344.69;;;15.12;73.11
20628;BME280;10473;42.734;24.258;2023-09-19T01:05:16;92346.59;;;15.05;73.84
20628;BME280;10473;42.734;24.258;2023-09-19T01:07:45;92318.38;;;14.97;73.76
20628;BME280;10473;42.734;24.258;2023-09-19T01:10:17;92330.19;;;15.13;73.17
20628;BME280;10473;42.734;24.258;2023-09-19T01:12:53;92342.78;;;15.13;73.42
20628;BME280;10473;42.734;24.258;2023-09-19T01:15:28;92330.19;;;15.03;72.80
20628;BME280;10473;42.734;24.258;2023-09-19T01:18:07;92309.97;;;14.91;72.42
20628;BME280;10473;42.734;24.258;2023-09-19T01:20:41;92346.19;;;15.03;73.20
20628;BME280;10473;42.734;24.258;2023-09-19T01:23:21;92341.63;;;14.96;73.13
20628;BME280;10473;42.734;24.258;2023-09-19T01:26:05;92343.94;;;15.05;72.55
20628;BME280;10473;42.734;24.258;2023-09-19T01:29:00;92346.19;;;15.06;72.41
20628;BME280;10473;42.734;24.258;2023-09-19T01:31:33;92346.97;;;15.07;72.17
20628;BME280;10473;42.734;24.258;2023-09-19T01:34:05;92336.28;;;14.93;72.09
20628;BME280;10473;42.734;24.258;2023-09-19T01:36:36;92348.50;;;15.01;72.32
20628;BME280;10473;42.734;24.258;2023-09-19T01:39:06;92345.44;;;14.99;72.43
20628;BME280;10473;42.734;24.258;2023-09-19T01:41:51;92344.69;;;14.95;72.38
20628;BME280;10473;42.734;24.258;2023-09-19T01:44:25;92333.63;;;14.89;72.37
20628;BME280;10473;42.734;24.258;2023-09-19T01:47:00;92330.56;;;14.84;72.56
20628;BME280;10473;42.734;24.258;2023-09-19T01:49:37;92294.72;;;14.57;72.63
20628;BME280;10473;42.734;24.258;2023-09-19T01:52:10;92324.09;;;14.74;73.09
20628;BME280;10473;42.734;24.258;2023-09-19T01:54:48;92321.41;;;14.64;73.14
20628;BME280;10473;42.734;24.258;2023-09-19T01:57:23;92334.72;;;14.64;72.92
20628;BME280;10473;42.734;24.258;2023-09-19T01:59:59;92324.84;;;14.61;73.09
20628;BME280;10473;42.734;24.258;2023-09-19T02:02:43;92317.19;;;14.52;73.55
20628;BME280;10473;42.734;24.258;2023-09-19T02:05:12;92300.75;;;14.22;73.54
20628;BME280;10473;42.734;24.258;2023-09-19T02:07:40;92309.56;;;14.33;73.45
20628;BME280;10473;42.734;24.258;2023-09-19T02:10:08;92326.25;;;14.20;74.69
20628;BME280;10473;42.734;24.258;2023-09-19T02:12:38;92320.09;;;14.05;74.85
20628;BME280;10473;42.734;24.258;2023-09-19T02:15:07;92325.41;;;14.02;75.16
20628;BME280;10473;42.734;24.258;2023-09-19T02:17:35;92317.78;;;14.04;75.44
20628;BME280;10473;42.734;24.258;2023-09-19T02:20:05;92322.41;;;14.17;75.12
20628;BME280;10473;42.734;24.258;2023-09-19T02:22:39;92320.97;;;14.30;74.34
20628;BME280;10473;42.734;24.258;2023-09-19T02:25:07;92330.47;;;14.35;73.62
20628;BME280;10473;42.734;24.258;2023-09-19T02:27:36;92330.09;;;14.33;73.47
20628;BME280;10473;42.734;24.258;2023-09-19T02:30:05;92329.31;;;14.22;73.96
20628;BME280;10473;42.734;24.258;2023-09-19T02:32:32;92317.13;;;14.24;74.90
20628;BME280;10473;42.734;24.258;2023-09-19T02:35:08;92323.22;;;14.25;74.49
20628;BME280;10473;42.734;24.258;2023-09-19T02:37:37;92318.66;;;14.25;74.88
20628;BME280;10473;42.734;24.258;2023-09-19T02:40:06;92320.19;;;14.30;74.21
20628;BME280;10473;42.734;24.258;2023-09-19T02:42:45;92294.28;;;14.27;73.73
20628;BME280;10473;42.734;24.258;2023-09-19T02:45:16;92311.06;;;14.38;73.50
20628;BME280;10473;42.734;24.258;2023-09-19T02:47:45;92300.41;;;14.38;73.33
20628;BME280;10473;42.734;24.258;2023-09-19T02:50:15;92309.56;;;14.37;73.27
20628;BME280;10473;42.734;24.258;2023-09-19T02:52:44;92304.59;;;14.32;73.41
20628;BME280;10473;42.734;24.258;2023-09-19T02:55:14;92306.88;;;14.33;73.42
20628;BME280;10473;42.734;24.258;2023-09-19T02:57:46;92285.09;;;14.14;74.25
20628;BME280;10473;42.734;24.258;2023-09-19T03:00:15;92292.00;;;14.22;73.73
20628;BME280;10473;42.734;24.258;2023-09-19T03:02:48;92273.28;;;14.08;73.66
20628;BME280;10473;42.734;24.258;2023-09-19T03:05:20;92282.44;;;14.17;74.11
20628;BME280;10473;42.734;24.258;2023-09-19T03:07:52;92285.16;;;14.21;73.78
20628;BME280;10473;42.734;24.258;2023-09-19T03:10:22;92285.53;;;14.23;73.49
20628;BME280;10473;42.734;24.258;2023-09-19T03:12:52;92283.59;;;14.20;73.22
20628;BME280;10473;42.734;24.258;2023-09-19T03:15:19;92277.50;;;14.16;73.27
20628;BME280;10473;42.734;24.258;2023-09-19T03:17:50;92269.09;;;14.14;73.79
20628;BME280;10473;42.734;24.258;2023-09-19T03:20:24;92278.19;;;14.06;74.45
20628;BME280;10473;42.734;24.258;2023-09-19T03:22:54;92274.78;;;14.02;74.66
20628;BME280;10473;42.734;24.258;2023-09-19T03:25:23;92246.94;;;13.82;74.02
20628;BME280;10473;42.734;24.258;2023-09-19T03:27:52;92278.19;;;14.06;73.81
20628;BME280;10473;42.734;24.258;2023-09-19T03:30:22;92277.44;;;14.02;74.12
20628;BME280;10473;42.734;24.258;2023-09-19T03:32:50;92278.97;;;14.03;74.12
20628;BME280;10473;42.734;24.258;2023-09-19T03:35:19;92278.97;;;14.03;74.17
20628;BME280;10473;42.734;24.258;2023-09-19T03:37:50;92283.16;;;14.04;73.98
20628;BME280;10473;42.734;24.258;2023-09-19T03:40:19;92288.84;;;13.99;74.41
20628;BME280;10473;42.734;24.258;2023-09-19T03:42:49;92282.75;;;13.95;75.28
20628;BME280;10473;42.734;24.258;2023-09-19T03:45:22;92285.81;;;13.97;74.62
20628;BME280;10473;42.734;24.258;2023-09-19T03:47:52;92296.06;;;13.95;74.68
20628;BME280;10473;42.734;24.258;2023-09-19T03:50:22;92290.34;;;13.89;74.96
20628;BME280;10473;42.734;24.258;2023-09-19T03:53:00;92294.91;;;13.89;75.17
20628;BME280;10473;42.734;24.258;2023-09-19T03:55:28;92298.31;;;13.86;75.18
20628;BME280;10473;42.734;24.258;2023-09-19T03:57:56;92265.47;;;13.57;74.86
20628;BME280;10473;42.734;24.258;2023-09-19T04:00:24;92289.53;;;13.75;75.61
20628;BME280;10473;42.734;24.258;2023-09-19T04:02:53;92294.91;;;13.85;75.11
20628;BME280;10473;42.734;24.258;2023-09-19T04:05:22;92293.38;;;13.88;74.92
20628;BME280;10473;42.734;24.258;2023-09-19T04:07:50;92293.34;;;13.77;74.78
20628;BME280;10473;42.734;24.258;2023-09-19T04:10:19;92302.47;;;13.73;75.82
20628;BME280;10473;42.734;24.258;2023-09-19T04:12:53;92292.22;;;13.82;74.60
20628;BME280;10473;42.734;24.258;2023-09-19T04:15:22;92290.31;;;13.82;74.63
20628;BME280;10473;42.734;24.258;2023-09-19T04:17:54;92292.19;;;13.75;75.24
20628;BME280;10473;42.734;24.258;2023-09-19T04:20:22;92302.47;;;13.80;75.19
20628;BME280;10473;42.734;24.258;2023-09-19T04:22:50;92299.44;;;13.78;74.69
20628;BME280;10473;42.734;24.258;2023-09-19T04:25:19;92294.78;;;13.61;75.66
20628;BME280;10473;42.734;24.258;2023-09-19T04:27:47;92285.59;;;13.48;76.55
20628;BME280;10473;42.734;24.258;2023-09-19T04:30:15;92284.19;;;13.68;76.06
20628;BME280;10473;42.734;24.258;2023-09-19T04:32:43;92288.41;;;13.79;75.32
20628;BME280;10473;42.734;24.258;2023-09-19T04:35:11;92290.31;;;13.82;75.75
20628;BME280;10473;42.734;24.258;2023-09-19T04:37:39;92296.44;;;13.90;75.13
20628;BME280;10473;42.734;24.258;2023-09-19T04:40:10;92302.53;;;13.94;75.34
20628;BME280;10473;42.734;24.258;2023-09-19T04:42:41;92267.47;;;13.78;75.76
20628;BME280;10473;42.734;24.258;2023-09-19T04:45:10;92297.13;;;13.73;77.36
20628;BME280;10473;42.734;24.258;2023-09-19T04:47:38;92288.06;;;13.88;78.16
20628;BME280;10473;42.734;24.258;2023-09-19T04:50:08;92286.91;;;13.82;77.59
20628;BME280;10473;42.734;24.258;2023-09-19T04:52:39;92286.50;;;13.80;78.10
20628;BME280;10473;42.734;24.258;2023-09-19T04:55:10;92285.09;;;14.07;78.09
20628;BME280;10473;42.734;24.258;2023-09-19T04:57:45;92298.16;;;14.54;76.04
20628;BME280;10473;42.734;24.258;2023-09-19T05:00:14;92295.50;;;14.89;76.37
20628;BME280;10473;42.734;24.258;2023-09-19T05:02:43;92293.19;;;15.26;75.51
20628;BME280;10473;42.734;24.258;2023-09-19T05:05:11;92297.34;;;15.69;73.09
20628;BME280;10473;42.734;24.258;2023-09-19T05:07:41;92302.91;;;16.06;71.62
20628;BME280;10473;42.734;24.258;2023-09-19T05:10:10;92306.19;;;16.45;70.61
20628;BME280;10473;42.734;24.258;2023-09-19T05:12:38;92281.97;;;16.66;68.85
20628;BME280;10473;42.734;24.258;2023-09-19T05:15:08;92298.84;;;17.14;67.97
20628;BME280;10473;42.734;24.258;2023-09-19T05:17:36;92311.00;;;17.22;66.10
20628;BME280;10473;42.734;24.258;2023-09-19T05:20:05;92310.19;;;17.28;66.02
20628;BME280;10473;42.734;24.258;2023-09-19T05:22:40;92310.22;;;17.25;66.58
20628;BME280;10473;42.734;24.258;2023-09-19T05:25:09;92303.53;;;17.03;66.93
20628;BME280;10473;42.734;24.258;2023-09-19T05:27:37;92305.84;;;16.97;66.45
20628;BME280;10473;42.734;24.258;2023-09-19T05:30:07;92300.63;;;17.27;66.79
20628;BME280;10473;42.734;24.258;2023-09-19T05:32:35;92305.84;;;17.48;65.15
20628;BME280;10473;42.734;24.258;2023-09-19T05:35:03;92294.84;;;17.73;65.41
20628;BME280;10473;42.734;24.258;2023-09-19T05:37:34;92306.44;;;18.00;64.60
20628;BME280;10473;42.734;24.258;2023-09-19T05:40:03;92290.53;;;17.82;63.88
20628;BME280;10473;42.734;24.258;2023-09-19T05:42:36;92305.56;;;18.10;63.30
20628;BME280;10473;42.734;24.258;2023-09-19T05:45:04;92303.13;;;18.19;62.97
20628;BME280;10473;42.734;24.258;2023-09-19T05:47:39;92301.56;;;18.25;63.07
20628;BME280;10473;42.734;24.258;2023-09-19T05:50:10;92285.34;;;18.32;63.20
20628;BME280;10473;42.734;24.258;2023-09-19T05:52:38;92293.50;;;18.55;63.78
20628;BME280;10473;42.734;24.258;2023-09-19T05:55:07;92284.44;;;18.72;62.27
20628;BME280;10473;42.734;24.258;2023-09-19T05:57:35;92297.22;;;18.91;62.67
20628;BME280;10473;42.734;24.258;2023-09-19T06:00:04;92286.25;;;19.05;61.95
20628;BME280;10473;42.734;24.258;2023-09-19T06:02:39;92295.03;;;19.32;61.68
20628;BME280;10473;42.734;24.258;2023-09-19T06:05:07;92296.56;;;19.56;62.05
20628;BME280;10473;42.734;24.258;2023-09-19T06:07:36;92292.25;;;19.81;61.38
20628;BME280;10473;42.734;24.258;2023-09-19T06:10:05;92292.88;;;20.12;62.19
20628;BME280;10473;42.734;24.258;2023-09-19T06:12:33;92294.34;;;20.52;60.84
20628;BME280;10473;42.734;24.258;2023-09-19T06:15:06;92292.34;;;20.91;59.85
20628;BME280;10473;42.734;24.258;2023-09-19T06:17:35;92288.25;;;21.19;57.88
20628;BME280;10473;42.734;24.258;2023-09-19T06:20:06;92288.25;;;21.19;55.85
20628;BME280;10473;42.734;24.258;2023-09-19T06:22:39;92300.53;;;20.33;56.75
20628;BME280;10473;42.734;24.258;2023-09-19T06:25:08;92282.63;;;20.78;57.47
20628;BME280;10473;42.734;24.258;2023-09-19T06:27:38;92276.00;;;20.47;57.45
20628;BME280;10473;42.734;24.258;2023-09-19T06:30:08;92282.25;;;20.60;58.49
20628;BME280;10473;42.734;24.258;2023-09-19T06:32:37;92281.59;;;20.56;58.92
20628;BME280;10473;42.734;24.258;2023-09-19T06:35:07;92280.28;;;20.05;59.78
20628;BME280;10473;42.734;24.258;2023-09-19T06:37:37;92272.56;;;20.07;59.88
20628;BME280;10473;42.734;24.258;2023-09-19T06:40:07;92270.47;;;20.54;59.52
20628;BME280;10473;42.734;24.258;2023-09-19T06:42:40;92270.22;;;20.48;58.50
20628;BME280;10473;42.734;24.258;2023-09-19T06:45:09;92257.63;;;19.83;60.37
20628;BME280;10473;42.734;24.258;2023-09-19T06:47:37;92265.56;;;20.49;61.45
20628;BME280;10473;42.734;24.258;2023-09-19T06:50:07;92256.34;;;20.11;60.25
20628;BME280;10473;42.734;24.258;2023-09-19T06:52:39;92265.84;;;19.96;59.57
20628;BME280;10473;42.734;24.258;2023-09-19T06:55:08;92261.16;;;20.39;60.34
20628;BME280;10473;42.734;24.258;2023-09-19T06:57:38;92255.66;;;20.26;59.83
20628;BME280;10473;42.734;24.258;2023-09-19T07:00:07;92265.94;;;20.51;58.84
20628;BME280;10473;42.734;24.258;2023-09-19T07:02:41;92263.22;;;20.51;60.21
20628;BME280;10473;42.734;24.258;2023-09-19T07:05:10;92265.59;;;21.00;60.22
20628;BME280;10473;42.734;24.258;2023-09-19T07:07:38;92271.66;;;21.52;61.03
20628;BME280;10473;42.734;24.258;2023-09-19T07:10:06;92276.25;;;21.84;58.04
20628;BME280;10473;42.734;24.258;2023-09-19T07:12:37;92282.00;;;22.27;56.59
20628;BME280;10473;42.734;24.258;2023-09-19T07:15:06;92280.50;;;22.67;57.44
20628;BME280;10473;42.734;24.258;2023-09-19T07:17:33;92277.19;;;23.13;55.64
20628;BME280;10473;42.734;24.258;2023-09-19T07:20:01;92284.03;;;23.64;54.27
20628;BME280;10473;42.734;24.258;2023-09-19T07:22:35;92288.69;;;24.10;51.25
20628;BME280;10473;42.734;24.258;2023-09-19T07:25:05;92293.25;;;24.56;49.02
20628;BME280;10473;42.734;24.258;2023-09-19T07:27:33;92279.34;;;24.97;49.73
20628;BME280;10473;42.734;24.258;2023-09-19T07:30:01;92273.34;;;25.33;48.25
20628;BME280;10473;42.734;24.258;2023-09-19T07:32:29;92275.91;;;25.36;49.62
20628;BME280;10473;42.734;24.258;2023-09-19T07:34:56;92283.94;;;25.49;46.70
20628;BME280;10473;42.734;24.258;2023-09-19T07:37:24;92287.06;;;24.34;47.58
20628;BME280;10473;42.734;24.258;2023-09-19T07:39:54;92267.25;;;24.89;49.23
20628;BME280;10473;42.734;24.258;2023-09-19T07:42:22;92283.69;;;24.64;47.38
20628;BME280;10473;42.734;24.258;2023-09-19T07:44:49;92286.94;;;24.80;47.88
20628;BME280;10473;42.734;24.258;2023-09-19T07:47:17;92270.78;;;25.38;48.42
20628;BME280;10473;42.734;24.258;2023-09-19T07:49:46;92281.03;;;24.73;46.62
20628;BME280;10473;42.734;24.258;2023-09-19T07:52:15;92265.47;;;24.95;48.72
20628;BME280;10473;42.734;24.258;2023-09-19T07:54:43;92278.09;;;25.68;46.75
20628;BME280;10473;42.734;24.258;2023-09-19T07:57:12;92268.00;;;25.20;47.18
20628;BME280;10473;42.734;24.258;2023-09-19T07:59:41;92272.34;;;25.57;46.36
20628;BME280;10473;42.734;24.258;2023-09-19T08:02:09;92265.44;;;25.74;45.52
20628;BME280;10473;42.734;24.258;2023-09-19T08:04:42;92274.50;;;25.80;46.01
20628;BME280;10473;42.734;24.258;2023-09-19T08:07:09;92272.44;;;25.93;46.07
20628;BME280;10473;42.734;24.258;2023-09-19T08:09:37;92259.78;;;25.02;46.46
20628;BME280;10473;42.734;24.258;2023-09-19T08:12:05;92261.19;;;25.55;46.81
20628;BME280;10473;42.734;24.258;2023-09-19T08:14:35;92267.78;;;25.45;46.24
20628;BME280;10473;42.734;24.258;2023-09-19T08:17:03;92264.81;;;24.39;49.12
20628;BME280;10473;42.734;24.258;2023-09-19T08:19:31;92261.16;;;25.07;46.54
20628;BME280;10473;42.734;24.258;2023-09-19T08:21:59;92260.16;;;25.22;45.74
20628;BME280;10473;42.734;24.258;2023-09-19T08:24:28;92266.59;;;25.46;47.80
20628;BME280;10473;42.734;24.258;2023-09-19T08:26:56;92254.50;;;25.38;46.77
20628;BME280;10473;42.734;24.258;2023-09-19T08:29:25;92257.03;;;24.93;46.80
20628;BME280;10473;42.734;24.258;2023-09-19T08:31:55;92250.56;;;24.69;47.92
20628;BME280;10473;42.734;24.258;2023-09-19T08:34:24;92245.63;;;25.07;47.29
20628;BME280;10473;42.734;24.258;2023-09-19T08:36:53;92248.50;;;25.52;46.72
20628;BME280;10473;42.734;24.258;2023-09-19T08:39:22;92245.41;;;26.17;47.51
20628;BME280;10473;42.734;24.258;2023-09-19T08:41:57;92253.13;;;26.09;45.49
20628;BME280;10473;42.734;24.258;2023-09-19T08:44:27;92251.56;;;25.63;44.83
20628;BME280;10473;42.734;24.258;2023-09-19T08:47:03;92243.41;;;25.90;45.28
20628;BME280;10473;42.734;24.258;2023-09-19T08:49:41;92248.47;;;26.96;43.68
20628;BME280;10473;42.734;24.258;2023-09-19T08:52:18;92246.59;;;28.00;44.27
20628;BME280;10473;42.734;24.258;2023-09-19T08:54:48;92235.06;;;28.86;41.25
20628;BME280;10473;42.734;24.258;2023-09-19T08:57:19;92245.41;;;29.11;39.06
20628;BME280;10473;42.734;24.258;2023-09-19T08:59:49;92238.13;;;29.37;39.12
20628;BME280;10473;42.734;24.258;2023-09-19T09:02:18;92237.72;;;29.59;39.62
20628;BME280;10473;42.734;24.258;2023-09-19T09:04:48;92233.47;;;29.92;38.09
20628;BME280;10473;42.734;24.258;2023-09-19T09:07:17;92243.06;;;30.08;37.75
20628;BME280;10473;42.734;24.258;2023-09-19T09:09:47;92241.13;;;30.28;39.30
20628;BME280;10473;42.734;24.258;2023-09-19T09:12:15;92238.94;;;29.58;38.14
20628;BME280;10473;42.734;24.258;2023-09-19T09:14:44;92234.97;;;29.24;37.17
20628;BME280;10473;42.734;24.258;2023-09-19T09:17:12;92237.84;;;29.35;38.68
20628;BME280;10473;42.734;24.258;2023-09-19T09:19:41;92238.94;;;28.94;36.95
20628;BME280;10473;42.734;24.258;2023-09-19T09:22:10;92237.59;;;28.08;38.28
20628;BME280;10473;42.734;24.258;2023-09-19T09:24:51;92229.91;;;26.86;38.53
20628;BME280;10473;42.734;24.258;2023-09-19T09:27:20;92235.00;;;26.24;41.71
20628;BME280;10473;42.734;24.258;2023-09-19T09:29:51;92229.66;;;26.48;41.35
20628;BME280;10473;42.734;24.258;2023-09-19T09:32:22;92229.84;;;26.62;43.57
20628;BME280;10473;42.734;24.258;2023-09-19T09:34:53;92230.53;;;26.81;43.58
20628;BME280;10473;42.734;24.258;2023-09-19T09:37:22;92223.38;;;26.92;44.28
20628;BME280;10473;42.734;24.258;2023-09-19T09:39:52;92219.88;;;27.01;43.76
20628;BME280;10473;42.734;24.258;2023-09-19T09:42:33;92210.38;;;26.96;42.85
20628;BME280;10473;42.734;24.258;2023-09-19T09:45:18;92210.53;;;25.79;44.22
20628;BME280;10473;42.734;24.258;2023-09-19T09:47:54;92208.44;;;26.01;45.60
20628;BME280;10473;42.734;24.258;2023-09-19T09:50:30;92204.50;;;26.11;44.48
20628;BME280;10473;42.734;24.258;2023-09-19T09:53:23;92208.88;;;25.73;46.70
20628;BME280;10473;42.734;24.258;2023-09-19T09:56:00;92208.28;;;26.05;45.27
20628;BME280;10473;42.734;24.258;2023-09-19T09:58:29;92209.63;;;26.27;44.82
20628;BME280;10473;42.734;24.258;2023-09-19T10:01:01;92206.44;;;25.57;45.80
20628;BME280;10473;42.734;24.258;2023-09-19T10:03:36;92207.69;;;26.01;44.82
20628;BME280;10473;42.734;24.258;2023-09-19T10:06:10;92204.22;;;26.18;45.45
20628;BME280;10473;42.734;24.258;2023-09-19T10:08:58;92208.84;;;25.64;47.75
20628;BME280;10473;42.734;24.258;2023-09-19T10:11:41;92212.72;;;25.36;46.38
20628;BME280;10473;42.734;24.258;2023-09-19T10:14:10;92208.41;;;25.65;45.05
20628;BME280;10473;42.734;24.258;2023-09-19T10:16:41;92205.09;;;25.88;46.89
20628;BME280;10473;42.734;24.258;2023-09-19T10:19:16;92193.34;;;26.09;47.01
20628;BME280;10473;42.734;24.258;2023-09-19T10:21:45;92195.72;;;26.25;45.54
20628;BME280;10473;42.734;24.258;2023-09-19T10:24:15;92204.50;;;26.29;45.27
20628;BME280;10473;42.734;24.258;2023-09-19T10:26:45;92191.50;;;26.33;45.70
20628;BME280;10473;42.734;24.258;2023-09-19T10:29:13;92196.97;;;26.15;44.25
20628;BME280;10473;42.734;24.258;2023-09-19T10:31:44;92184.88;;;26.25;44.96
20628;BME280;10473;42.734;24.258;2023-09-19T10:34:14;92194.22;;;26.42;45.33
20628;BME280;10473;42.734;24.258;2023-09-19T10:36:45;92187.84;;;26.45;44.81
20628;BME280;10473;42.734;24.258;2023-09-19T10:39:15;92184.34;;;26.63;44.43
20628;BME280;10473;42.734;24.258;2023-09-19T10:41:50;92174.63;;;26.80;45.31
20628;BME280;10473;42.734;24.258;2023-09-19T10:44:25;92175.09;;;26.78;44.52
20628;BME280;10473;42.734;24.258;2023-09-19T10:46:54;92171.34;;;26.67;44.18
20628;BME280;10473;42.734;24.258;2023-09-19T10:49:23;92177.47;;;26.85;44.00
20628;BME280;10473;42.734;24.258;2023-09-19T10:51:55;92175.13;;;27.02;45.48
20628;BME280;10473;42.734;24.258;2023-09-19T10:54:28;92172.34;;;26.87;44.22
20628;BME280;10473;42.734;24.258;2023-09-19T10:56:59;92167.06;;;26.24;44.76
20628;BME280;10473;42.734;24.258;2023-09-19T10:59:31;92158.56;;;26.40;45.16
20628;BME280;10473;42.734;24.258;2023-09-19T11:02:15;92166.09;;;26.45;45.73
20628;BME280;10473;42.734;24.258;2023-09-19T11:04:44;92164.09;;;26.64;43.74
20628;BME280;10473;42.734;24.258;2023-09-19T11:07:15;92158.75;;;26.78;45.62
20628;BME280;10473;42.734;24.258;2023-09-19T11:09:48;92148.97;;;25.76;45.14
20628;BME280;10473;42.734;24.258;2023-09-19T11:12:50;92152.25;;;26.25;46.10
20628;BME280;10473;42.734;24.258;2023-09-19T11:18:54;92139.31;;;26.11;44.38
20628;BME280;10473;42.734;24.258;2023-09-19T11:21:52;92139.19;;;25.97;45.51
20628;BME280;10473;42.734;24.258;2023-09-19T11:24:31;92144.25;;;26.31;46.20
20628;BME280;10473;42.734;24.258;2023-09-19T11:27:13;92141.00;;;26.50;45.46
20628;BME280;10473;42.734;24.258;2023-09-19T11:29:43;92137.66;;;26.64;44.68
20628;BME280;10473;42.734;24.258;2023-09-19T11:32:11;92143.50;;;26.30;45.35
20628;BME280;10473;42.734;24.258;2023-09-19T11:34:48;92132.94;;;26.23;46.26
20628;BME280;10473;42.734;24.258;2023-09-19T11:40:47;92132.06;;;25.72;47.62
20628;BME280;10473;42.734;24.258;2023-09-19T11:43:31;92123.78;;;25.94;48.01
20628;BME280;10473;42.734;24.258;2023-09-19T11:46:07;92108.97;;;26.13;46.49
20628;BME280;10473;42.734;24.258;2023-09-19T11:48:35;92116.53;;;26.50;46.89
20628;BME280;10473;42.734;24.258;2023-09-19T11:51:14;92115.13;;;26.73;45.63
20628;BME280;10473;42.734;24.258;2023-09-19T11:53:46;92119.56;;;26.94;46.22
20628;BME280;10473;42.734;24.258;2023-09-19T11:56:21;92114.25;;;26.67;43.12
20628;BME280;10473;42.734;24.258;2023-09-19T11:58:51;92112.00;;;26.56;44.76
20628;BME280;10473;42.734;24.258;2023-09-19T12:01:25;92105.47;;;26.72;45.30
20628;BME280;10473;42.734;24.258;2023-09-19T12:03:56;92106.16;;;26.81;43.71
20628;BME280;10473;42.734;24.258;2023-09-19T12:06:24;92106.00;;;26.85;44.67
20628;BME280;10473;42.734;24.258;2023-09-19T12:08:53;92104.03;;;25.93;44.13
20628;BME280;10473;42.734;24.258;2023-09-19T12:11:23;92107.03;;;25.95;44.30
20628;BME280;10473;42.734;24.258;2023-09-19T12:13:51;92098.00;;;25.53;43.50
20628;BME280;10473;42.734;24.258;2023-09-19T12:16:20;92101.16;;;25.79;44.34
20628;BME280;10473;42.734;24.258;2023-09-19T12:18:50;92090.91;;;25.92;43.82
20628;BME280;10473;42.734;24.258;2023-09-19T12:21:24;92095.22;;;26.16;43.52
20628;BME280;10473;42.734;24.258;2023-09-19T12:24:14;92090.94;;;26.33;42.47
20628;BME280;10473;42.734;24.258;2023-09-19T12:26:47;92091.47;;;26.46;41.92
20628;BME280;10473;42.734;24.258;2023-09-19T12:29:19;92082.75;;;26.42;40.74
20628;BME280;10473;42.734;24.258;2023-09-19T12:31:49;92075.53;;;26.39;40.69
20628;BME280;10473;42.734;24.258;2023-09-19T12:34:28;92080.28;;;26.53;42.10
20628;BME280;10473;42.734;24.258;2023-09-19T12:37:06;92072.66;;;26.34;35.85
20628;BME280;10473;42.734;24.258;2023-09-19T12:39:45;92073.75;;;26.27;38.64
20628;BME280;10473;42.734;24.258;2023-09-19T12:42:18;92066.59;;;25.97;39.36
20628;BME280;10473;42.734;24.258;2023-09-19T12:44:48;92075.38;;;25.74;40.91
20628;BME280;10473;42.734;24.258;2023-09-19T12:47:19;92072.66;;;25.65;41.24
20628;BME280;10473;42.734;24.258;2023-09-19T12:50:09;92067.34;;;25.80;41.79
20628;BME280;10473;42.734;24.258;2023-09-19T12:52:43;92059.09;;;25.47;42.89
20628;BME280;10473;42.734;24.258;2023-09-19T12:55:23;92058.47;;;25.70;42.25
20628;BME280;10473;42.734;24.258;2023-09-19T12:58:13;92070.47;;;26.14;42.10
20628;BME280;10473;42.734;24.258;2023-09-19T13:00:43;92058.88;;;26.05;40.39
20628;BME280;10473;42.734;24.258;2023-09-19T13:03:14;92065.91;;;26.29;41.55
20628;BME280;10473;42.734;24.258;2023-09-19T13:05:52;92063.38;;;26.49;40.56
20628;BME280;10473;42.734;24.258;2023-09-19T13:08:24;92049.19;;;26.13;41.33
20628;BME280;10473;42.734;24.258;2023-09-19T13:11:17;92055.50;;;26.19;40.97
20628;BME280;10473;42.734;24.258;2023-09-19T13:13:47;92053.66;;;25.74;40.43
20628;BME280;10473;42.734;24.258;2023-09-19T13:16:20;92043.50;;;25.84;40.81
20628;BME280;10473;42.734;24.258;2023-09-19T13:18:51;92045.16;;;25.90;41.37